Huvudsida
METAR-TAF:

METAR-TAF

Flygplatser :

Kish Island International Airport

Kish, Iran

latitud: 26-31-36N, longitud: 053-58-54E, höjd: 30 m

Aktuellt väderrapport

Denna rapport gjordes för 28 minuter sedan, klockan 18:00 UTC
Vind 6 kt från väst/nordväst
Temperatur 19°C
Fuktighet 83%
Tryck 1013 hPa
Sikt: 7000 m

METAR: OIBK 281800Z 30006KT 7000 NSC 19/16 Q1013

Tid: 21:58 (18:28 UTC)

Väderprognos

Denna rapport gjordes för 38 minuter sedan, klockan 17:50 UTC
Prognos gäller från 28 kl. 18 UTC till 29 kl. 24 UTC
Vind 8 kt från väst
Sikt: 6000 m
Blir
från 28 kl. 22 UTC till 28 kl. 24 UTC
Sikt: 5000 m
torrdis
Temporärt
från 29 kl. 01 UTC till 29 kl. 05 UTC
Sikt: 3000 m
Blir
från 29 kl. 08 UTC till 29 kl. 10 UTC
Sikt: 6000 m

TAF: OIBK 281750Z 2818/2924 28008KT 6000 NSC BECMG 2822/2824 5000 HZ TEMPO 2901/2905 3000 HZ/BR BECMG 2908/2910 6000

Aktuella väderrapporter och prognoser från 4000 flygplatser (METAR- och TAF-rapporter).

De tillgängliga stationerna syns som gula och röda prickar på kartan.

För musen över prickarna för att se namnen på stationerna.

Klicka sedan för att få väderrapporter och prognoser.

För att ändra kartan: Klicka på de gröna knapparna med ett svart kors på för att zooma in; den gröna knappen med ett streck på för att zooma ut; eller på de gröna pilarna för angränsande kartor.


METAR-TAF: